createdAt,value
2022-11-08T00:01:20.720Z,31.50
2022-11-08T00:03:47.579Z,32.45
2022-11-08T00:06:32.907Z,29.05
2022-11-08T00:09:23.090Z,29.55
2022-11-08T00:12:10.321Z,29.27
2022-11-08T00:14:37.157Z,30.20
2022-11-08T00:17:04.092Z,34.58
2022-11-08T00:19:30.984Z,28.52
2022-11-08T00:22:00.531Z,31.08
2022-11-08T00:24:27.327Z,35.15
2022-11-08T00:26:54.108Z,27.58
2022-11-08T00:29:22.143Z,28.10
2022-11-08T00:31:57.662Z,34.28
2022-11-08T00:34:24.231Z,29.92
2022-11-08T00:36:53.684Z,30.38
2022-11-08T00:39:21.248Z,30.63
2022-11-08T00:41:48.016Z,30.85
2022-11-08T00:44:14.651Z,34.17
2022-11-08T00:46:41.660Z,26.85
2022-11-08T00:49:11.526Z,29.88
2022-11-08T00:51:39.536Z,26.80
2022-11-08T00:54:09.318Z,36.88
2022-11-08T00:56:36.058Z,30.27
2022-11-08T00:59:02.830Z,28.48
2022-11-08T01:01:37.509Z,27.52
2022-11-08T01:04:04.754Z,32.40
2022-11-08T01:06:31.574Z,28.10
2022-11-08T01:08:58.277Z,32.15
2022-11-08T01:11:29.227Z,31.40
2022-11-08T01:14:00.874Z,33.78
2022-11-08T01:16:31.001Z,30.48
2022-11-08T01:19:02.138Z,28.73
2022-11-08T01:21:38.407Z,35.28
2022-11-08T01:24:06.168Z,28.85
2022-11-08T01:26:32.827Z,28.98
2022-11-08T01:29:06.108Z,27.88
2022-11-08T01:31:33.107Z,36.00
2022-11-08T01:34:03.214Z,34.35
2022-11-08T01:36:30.319Z,31.38
2022-11-08T01:38:57.566Z,30.63
2022-11-08T01:41:28.090Z,33.63
2022-11-08T01:44:03.028Z,33.25
2022-11-08T01:46:45.679Z,27.73
2022-11-08T01:49:25.674Z,31.00
2022-11-08T01:52:08.280Z,27.67
2022-11-08T01:54:54.164Z,28.00
2022-11-08T01:57:26.838Z,29.67
2022-11-08T02:00:00.683Z,29.58
2022-11-08T02:02:30.413Z,29.75
2022-11-08T02:04:59.170Z,33.58
2022-11-08T02:07:29.411Z,27.98
2022-11-08T02:09:57.487Z,29.50
2022-11-08T02:12:27.002Z,32.55
2022-11-08T02:14:57.470Z,28.10
2022-11-08T02:17:24.795Z,30.00
2022-11-08T02:19:53.932Z,26.08
2022-11-08T02:22:38.302Z,28.98
2022-11-08T02:25:07.550Z,25.80
2022-11-08T02:27:35.170Z,29.95
2022-11-08T02:30:01.876Z,29.85
2022-11-08T02:32:40.991Z,30.42
2022-11-08T02:35:16.899Z,29.90
2022-11-08T02:37:46.633Z,29.38
2022-11-08T02:40:19.493Z,27.98
2022-11-08T02:42:48.426Z,28.92
2022-11-08T02:45:18.099Z,23.73
2022-11-08T02:47:44.863Z,25.80
2022-11-08T02:50:14.134Z,28.02
2022-11-08T02:52:41.018Z,29.48
2022-11-08T02:55:14.021Z,26.17
2022-11-08T02:57:40.878Z,29.30
2022-11-08T03:00:08.367Z,27.42
2022-11-08T03:02:35.253Z,28.88
2022-11-08T03:05:02.552Z,27.23
2022-11-08T03:07:29.659Z,28.52
2022-11-08T03:09:56.736Z,27.17
2022-11-08T03:12:23.620Z,26.13
2022-11-08T03:14:50.656Z,30.23
2022-11-08T03:17:17.568Z,24.65
2022-11-08T03:19:44.445Z,24.90
2022-11-08T03:22:11.269Z,24.38
2022-11-08T03:24:38.691Z,19.58
2022-11-08T03:27:05.634Z,24.92
2022-11-08T03:29:32.425Z,24.60
2022-11-08T03:31:59.145Z,23.00
2022-11-08T03:34:32.699Z,25.70
2022-11-08T03:36:59.941Z,27.23
2022-11-08T03:39:27.985Z,27.92
2022-11-08T03:42:03.147Z,25.88
2022-11-08T03:44:30.838Z,25.63
2022-11-08T03:47:00.359Z,25.52
2022-11-08T03:49:33.262Z,23.67
2022-11-08T03:52:00.006Z,21.67
2022-11-08T03:54:27.276Z,23.17
2022-11-08T03:56:54.451Z,22.80
2022-11-08T03:59:21.213Z,24.33
2022-11-08T04:01:48.183Z,29.38
2022-11-08T04:04:18.130Z,23.40
2022-11-08T04:06:45.063Z,24.42
2022-11-08T04:09:11.961Z,22.48
2022-11-08T04:11:57.170Z,22.90
2022-11-08T04:14:42.420Z,27.75
2022-11-08T04:17:09.154Z,22.15
2022-11-08T04:19:55.952Z,25.05
2022-11-08T04:22:22.895Z,22.08
2022-11-08T04:24:50.975Z,24.77
2022-11-08T04:27:17.744Z,25.58
2022-11-08T04:29:44.702Z,21.33
2022-11-08T04:32:11.371Z,27.70
2022-11-08T04:34:40.592Z,24.50
2022-11-08T04:37:07.534Z,23.10
2022-11-08T04:39:34.310Z,26.13
2022-11-08T04:42:03.890Z,26.50
2022-11-08T04:44:30.551Z,33.40
2022-11-08T04:47:00.297Z,28.02
2022-11-08T04:49:28.566Z,24.55
2022-11-08T04:51:55.292Z,23.92
2022-11-08T04:54:24.036Z,22.95
2022-11-08T04:56:50.728Z,25.52
2022-11-08T04:59:18.377Z,23.98
2022-11-08T05:01:45.594Z,26.50
2022-11-08T05:04:12.484Z,27.13
2022-11-08T05:06:45.331Z,25.52
2022-11-08T05:09:15.174Z,21.95
2022-11-08T05:11:42.861Z,25.35
2022-11-08T05:14:10.260Z,29.83
2022-11-08T05:16:37.023Z,30.00
2022-11-08T05:19:06.939Z,27.10
2022-11-08T05:21:56.680Z,26.48
2022-11-08T05:24:23.407Z,24.42
2022-11-08T05:26:50.336Z,29.65
2022-11-08T05:29:17.535Z,27.02
2022-11-08T05:31:44.357Z,28.52
2022-11-08T05:34:11.162Z,24.17
2022-11-08T05:36:37.810Z,24.75
2022-11-08T05:39:07.173Z,31.92
2022-11-08T05:41:33.976Z,31.33
2022-11-08T05:44:00.598Z,26.58
2022-11-08T05:46:28.705Z,32.38
2022-11-08T05:48:55.783Z,34.60
2022-11-08T05:51:22.846Z,27.75
2022-11-08T05:53:49.770Z,27.67
2022-11-08T05:56:20.731Z,25.75
2022-11-08T05:58:50.119Z,27.85
2022-11-08T06:01:19.375Z,29.05
2022-11-08T06:03:47.317Z,25.10
2022-11-08T06:06:16.887Z,38.10
2022-11-08T06:08:48.898Z,25.20
2022-11-08T06:11:19.208Z,35.85
2022-11-08T06:13:45.885Z,33.30
2022-11-08T06:16:18.953Z,30.67
2022-11-08T06:18:46.113Z,32.08
2022-11-08T06:21:18.400Z,28.98
2022-11-08T06:23:45.242Z,29.67
2022-11-08T06:26:12.179Z,30.80
2022-11-08T06:28:39.050Z,29.88
2022-11-08T06:31:06.115Z,25.90
2022-11-08T06:33:32.942Z,29.48
2022-11-08T06:35:59.834Z,25.15
2022-11-08T06:38:28.169Z,28.35
2022-11-08T06:40:55.977Z,32.90
2022-11-08T06:43:23.236Z,27.27
2022-11-08T06:45:52.422Z,28.48
2022-11-08T06:48:20.699Z,29.95
2022-11-08T06:50:47.404Z,28.75
2022-11-08T06:53:15.141Z,30.30
2022-11-08T06:55:42.312Z,30.75
2022-11-08T06:58:10.813Z,25.65
2022-11-08T07:00:37.754Z,25.52
2022-11-08T07:03:04.880Z,21.98
2022-11-08T07:05:34.388Z,23.60
2022-11-08T07:08:06.283Z,18.85
2022-11-08T07:10:40.610Z,25.30
2022-11-08T07:13:11.761Z,24.77
2022-11-08T07:15:38.710Z,24.50
2022-11-08T07:18:08.391Z,21.98
2022-11-08T07:20:35.413Z,27.23
2022-11-08T07:23:02.205Z,30.48
2022-11-08T07:25:30.125Z,22.40
2022-11-08T07:28:00.180Z,21.08
2022-11-08T07:30:27.801Z,28.30
2022-11-08T07:32:56.552Z,22.95
2022-11-08T07:35:24.191Z,20.13
2022-11-08T07:37:51.064Z,20.83
2022-11-08T07:40:20.330Z,18.95
2022-11-08T07:43:43.411Z,25.25
2022-11-08T07:46:10.099Z,23.65
2022-11-08T07:48:37.348Z,29.65
2022-11-08T07:51:04.200Z,19.63
2022-11-08T07:53:31.458Z,24.80
2022-11-08T07:55:58.749Z,38.03
2022-11-08T07:58:25.586Z,25.17
2022-11-08T08:00:52.278Z,23.70
2022-11-08T08:03:21.611Z,30.15
2022-11-08T08:05:56.531Z,32.17
2022-11-08T08:08:32.935Z,24.08
2022-11-08T08:11:02.382Z,21.17
2022-11-08T08:13:36.824Z,28.67
2022-11-08T08:16:04.033Z,17.70
2022-11-08T08:18:31.051Z,21.27
2022-11-08T08:21:00.849Z,16.33
2022-11-08T08:23:27.867Z,12.75
2022-11-08T08:25:54.715Z,9.07
2022-11-08T08:28:26.670Z,12.15
2022-11-08T08:30:56.591Z,9.30
2022-11-08T08:33:30.652Z,9.80
2022-11-08T08:36:00.719Z,16.05
2022-11-08T08:38:27.725Z,14.15
2022-11-08T08:40:54.536Z,16.02
2022-11-08T08:43:27.299Z,19.90
2022-11-08T08:45:59.141Z,30.55
2022-11-08T08:50:55.852Z,36.67
2022-11-08T08:53:22.732Z,35.28
2022-11-08T08:55:52.534Z,33.30
2022-11-08T08:58:21.107Z,35.90
2022-11-08T09:03:39.751Z,29.92
2022-11-08T09:06:06.626Z,36.88
2022-11-08T09:08:33.444Z,46.33
2022-11-08T09:11:01.649Z,33.80
2022-11-08T09:13:31.039Z,43.55
2022-11-08T09:16:02.031Z,39.95
2022-11-08T09:18:29.270Z,36.33
2022-11-08T09:20:59.900Z,52.22
2022-11-08T09:23:27.528Z,51.28
2022-11-08T09:26:03.329Z,51.65
2022-11-08T09:28:34.490Z,58.63
2022-11-08T09:31:06.359Z,59.35
2022-11-08T09:36:01.710Z,60.50
2022-11-08T09:38:30.371Z,56.58
2022-11-08T09:41:19.646Z,61.65
2022-11-08T09:43:57.291Z,60.80
2022-11-08T09:46:38.836Z,58.08
2022-11-08T09:49:24.224Z,57.78
2022-11-08T09:51:52.063Z,59.15
2022-11-08T09:54:27.500Z,58.95
2022-11-08T09:56:55.739Z,54.50
2022-11-08T10:03:16.976Z,60.67
2022-11-08T10:06:00.254Z,64.38
2022-11-08T10:08:43.153Z,56.78
2022-11-08T10:11:22.839Z,54.95
2022-11-08T10:14:19.595Z,61.20
2022-11-08T10:17:07.540Z,65.45
2022-11-08T10:19:51.764Z,56.65
2022-11-08T10:22:24.536Z,53.75
2022-11-08T10:25:04.282Z,55.15
2022-11-08T10:27:41.043Z,51.45
2022-11-08T10:30:34.660Z,53.17
2022-11-08T10:33:02.615Z,63.58
2022-11-08T10:35:43.072Z,56.75
2022-11-08T10:38:24.962Z,54.47
2022-11-08T10:44:13.007Z,58.78
2022-11-08T10:46:48.730Z,59.55
2022-11-08T10:49:17.460Z,54.97
2022-11-08T10:51:45.997Z,58.97
2022-11-08T10:54:43.796Z,62.33
2022-11-08T10:57:33.190Z,51.97
2022-11-08T11:00:24.590Z,52.38
2022-11-08T11:03:12.103Z,54.38
2022-11-08T11:05:43.163Z,50.55
2022-11-08T11:08:09.828Z,49.65
2022-11-08T11:10:43.635Z,50.83
2022-11-08T11:13:16.579Z,47.60
2022-11-08T11:15:52.944Z,47.05
2022-11-08T11:18:33.298Z,44.88
2022-11-08T11:21:01.303Z,56.20
2022-11-08T11:23:43.741Z,49.70
2022-11-08T11:26:32.150Z,42.70
2022-11-08T11:29:22.152Z,48.50
2022-11-08T11:31:54.950Z,43.38
2022-11-08T11:34:35.032Z,46.17
2022-11-08T11:37:38.268Z,43.30
2022-11-08T11:40:15.962Z,43.53
2022-11-08T11:42:55.379Z,43.75
2022-11-08T11:45:46.775Z,42.38
2022-11-08T11:48:21.738Z,40.15
2022-11-08T11:50:50.253Z,46.13
2022-11-08T11:53:16.961Z,46.63
2022-11-08T11:55:46.852Z,49.63
2022-11-08T11:58:30.746Z,44.03
2022-11-08T12:01:46.438Z,51.47
2022-11-08T12:04:13.105Z,45.78
2022-11-08T12:06:49.010Z,45.58
2022-11-08T12:09:42.211Z,43.55
2022-11-08T12:12:42.884Z,47.38
2022-11-08T12:15:48.274Z,52.15
2022-11-08T12:18:42.619Z,43.58
2022-11-08T12:21:15.638Z,47.28
2022-11-08T12:24:16.466Z,54.17
2022-11-08T12:27:13.983Z,49.78
2022-11-08T12:29:41.487Z,44.72
2022-11-08T12:32:20.283Z,49.70
2022-11-08T12:34:46.988Z,49.50
2022-11-08T12:37:34.576Z,48.85
2022-11-08T12:40:17.418Z,46.00
2022-11-08T12:43:08.496Z,51.15
2022-11-08T12:45:38.999Z,47.37
2022-11-08T12:48:32.779Z,54.03
2022-11-08T12:51:09.180Z,50.83
2022-11-08T12:53:59.229Z,49.25
2022-11-08T12:56:46.235Z,42.72
2022-11-08T12:59:30.351Z,54.20
2022-11-08T13:01:58.712Z,50.35
2022-11-08T13:04:47.032Z,49.67
2022-11-08T13:07:36.571Z,45.88
2022-11-08T13:10:13.147Z,43.40
2022-11-08T13:12:54.957Z,43.22
2022-11-08T13:15:28.686Z,44.47
2022-11-08T13:18:07.833Z,44.45
2022-11-08T13:20:47.124Z,46.20
2022-11-08T13:23:23.625Z,52.05
2022-11-08T13:25:52.073Z,44.30
2022-11-08T13:28:35.656Z,40.47
2022-11-08T13:31:24.570Z,42.83
2022-11-08T13:34:14.363Z,45.72
2022-11-08T13:37:05.772Z,48.78
2022-11-08T13:40:00.401Z,43.17
2022-11-08T13:42:30.828Z,44.00
2022-11-08T13:45:13.068Z,45.88
2022-11-08T13:47:42.902Z,49.63
2022-11-08T13:50:27.981Z,45.25
2022-11-08T13:53:10.810Z,48.13
2022-11-08T13:55:43.568Z,48.55
2022-11-08T13:58:29.233Z,50.92
2022-11-08T14:01:01.123Z,46.22
2022-11-08T14:03:33.929Z,42.38
2022-11-08T14:06:09.066Z,42.22
2022-11-08T14:09:20.734Z,43.35
2022-11-08T14:11:54.240Z,40.75
2022-11-08T14:14:39.698Z,48.45
2022-11-08T14:17:33.331Z,40.22
2022-11-08T14:20:18.730Z,45.67
2022-11-08T14:22:50.404Z,39.83
2022-11-08T14:25:26.662Z,44.47
2022-11-08T14:27:54.324Z,38.25
2022-11-08T14:30:23.873Z,43.42
2022-11-08T14:33:14.520Z,38.28
2022-11-08T14:36:20.213Z,40.10
2022-11-08T14:39:04.020Z,43.95
2022-11-08T14:41:32.723Z,44.80
2022-11-08T14:44:01.577Z,44.90
2022-11-08T14:46:40.960Z,41.65
2022-11-08T14:49:13.846Z,49.05
2022-11-08T14:51:41.250Z,45.05
2022-11-08T14:54:25.270Z,47.63
2022-11-08T14:56:52.210Z,42.58
2022-11-08T14:59:19.234Z,45.05
2022-11-08T15:01:48.838Z,43.67
2022-11-08T15:04:21.620Z,46.60
2022-11-08T15:06:58.047Z,47.72
2022-11-08T15:09:33.648Z,40.08
2022-11-08T15:12:03.246Z,37.80
2022-11-08T15:14:37.211Z,45.33
2022-11-08T15:17:04.204Z,52.67
2022-11-08T15:19:43.332Z,56.25
2022-11-08T15:22:27.714Z,46.90
2022-11-08T15:25:34.584Z,50.78
2022-11-08T15:28:37.485Z,46.05
2022-11-08T15:31:17.167Z,48.00
2022-11-08T15:33:44.624Z,52.83
2022-11-08T15:36:13.551Z,50.53
2022-11-08T15:38:42.533Z,51.28
2022-11-08T15:41:44.912Z,53.40
2022-11-08T15:44:23.186Z,57.42
2022-11-08T15:46:51.779Z,55.13
2022-11-08T15:49:29.821Z,55.33
2022-11-08T15:52:00.539Z,55.83
2022-11-08T15:54:27.448Z,58.95
2022-11-08T15:56:58.681Z,51.95
2022-11-08T15:59:30.229Z,56.90
2022-11-08T16:02:00.733Z,67.82
2022-11-08T16:04:30.885Z,64.07
2022-11-08T16:06:58.651Z,69.85
2022-11-08T16:09:25.404Z,60.33
2022-11-08T16:11:55.284Z,68.25
2022-11-08T16:14:24.633Z,67.32
2022-11-08T16:16:56.554Z,64.88
2022-11-08T16:19:29.275Z,65.65
2022-11-08T16:21:58.594Z,68.30
2022-11-08T16:24:25.410Z,73.47
2022-11-08T16:26:54.633Z,62.13
2022-11-08T16:29:23.481Z,63.55
2022-11-08T16:31:53.363Z,69.43
2022-11-08T16:34:20.456Z,67.25
2022-11-08T16:39:55.518Z,70.95
2022-11-08T16:42:23.718Z,62.15
2022-11-08T16:44:51.985Z,66.10
2022-11-08T16:47:19.884Z,69.45
2022-11-08T16:49:51.455Z,73.63
2022-11-08T16:54:45.236Z,68.07
2022-11-08T16:57:33.658Z,70.35
2022-11-08T16:59:58.892Z,72.85
2022-11-08T17:02:34.641Z,72.25
2022-11-08T17:05:01.778Z,76.57
2022-11-08T17:07:29.456Z,74.25
2022-11-08T17:09:56.108Z,75.03
2022-11-08T17:12:24.276Z,79.00
2022-11-08T17:14:53.563Z,75.82
2022-11-08T17:17:30.642Z,68.88
2022-11-08T17:19:57.354Z,73.00
2022-11-08T17:22:24.152Z,75.03
2022-11-08T17:24:51.277Z,74.95
2022-11-08T17:27:19.891Z,74.38
2022-11-08T17:29:46.931Z,80.00
2022-11-08T17:32:14.586Z,79.07
2022-11-08T17:34:46.628Z,82.78
2022-11-08T17:37:17.671Z,81.53
2022-11-08T17:39:45.980Z,79.15
2022-11-08T17:42:13.071Z,91.50
2022-11-08T17:44:40.526Z,79.05
2022-11-08T17:47:07.323Z,89.13
2022-11-08T17:49:34.208Z,98.55
2022-11-08T17:52:00.926Z,87.15
2022-11-08T17:54:28.869Z,82.50
2022-11-08T17:56:55.878Z,85.22
2022-11-08T17:59:22.713Z,80.65
2022-11-08T18:01:52.812Z,90.72
2022-11-08T18:04:22.437Z,86.60
2022-11-08T18:06:52.555Z,85.28
2022-11-08T18:09:20.190Z,92.28
2022-11-08T18:11:50.616Z,89.32
2022-11-08T18:14:22.000Z,89.82
2022-11-08T18:16:56.127Z,90.50
2022-11-08T18:19:23.579Z,89.45
2022-11-08T18:21:50.512Z,92.75
2022-11-08T18:24:17.418Z,92.68
2022-11-08T18:26:44.460Z,92.40
2022-11-08T18:29:12.568Z,86.95
2022-11-08T18:31:39.805Z,84.22
2022-11-08T18:34:06.649Z,96.82
2022-11-08T18:36:33.588Z,83.95
2022-11-08T18:39:01.391Z,91.20
2022-11-08T18:41:31.699Z,86.32
2022-11-08T18:44:02.390Z,79.97
2022-11-08T18:46:36.558Z,83.65
2022-11-08T18:49:14.822Z,85.22
2022-11-08T18:51:45.448Z,85.05
2022-11-08T18:54:12.544Z,82.72
2022-11-08T18:56:41.311Z,76.18
2022-11-08T18:59:11.317Z,84.20
2022-11-08T19:01:51.217Z,85.22
2022-11-08T19:04:18.078Z,83.40
2022-11-08T19:06:48.784Z,78.78
2022-11-08T19:09:19.410Z,94.13
2022-11-08T19:11:47.775Z,82.60
2022-11-08T19:14:17.209Z,82.75
2022-11-08T19:16:44.141Z,88.63
2022-11-08T19:19:13.982Z,87.28
2022-11-08T19:21:44.535Z,84.18
2022-11-08T19:24:17.772Z,87.40
2022-11-08T19:26:46.529Z,84.05
2022-11-08T19:29:14.369Z,95.45
2022-11-08T19:31:47.817Z,96.45
2022-11-08T19:34:15.844Z,92.25
2022-11-08T19:36:49.030Z,86.60
2022-11-08T19:39:19.339Z,85.68
2022-11-08T19:41:48.271Z,99.10
2022-11-08T19:44:19.155Z,85.60
2022-11-08T19:46:46.179Z,84.87
2022-11-08T19:49:13.186Z,90.80
2022-11-08T19:51:42.195Z,115.30
2022-11-08T19:54:21.726Z,93.95
2022-11-08T19:57:10.534Z,95.63
2022-11-08T19:59:40.414Z,93.70
2022-11-08T20:02:07.462Z,93.88
2022-11-08T20:04:34.691Z,94.18
2022-11-08T20:07:02.666Z,95.05
2022-11-08T20:09:33.038Z,90.43
2022-11-08T20:12:00.092Z,93.97
2022-11-08T20:14:28.514Z,93.43
2022-11-08T20:16:55.785Z,89.28
2022-11-08T20:19:28.166Z,94.32
2022-11-08T20:21:58.197Z,95.63
2022-11-08T20:24:26.580Z,93.97
2022-11-08T20:26:58.067Z,96.90
2022-11-08T20:29:30.551Z,103.47
2022-11-08T20:31:58.090Z,94.57
2022-11-08T20:34:26.444Z,103.68
2022-11-08T20:36:55.687Z,96.78
2022-11-08T20:39:23.762Z,101.68
2022-11-08T20:41:56.838Z,96.18
2022-11-08T20:44:24.370Z,107.50
2022-11-08T20:46:51.929Z,101.45
2022-11-08T20:49:20.476Z,107.45
2022-11-08T20:51:49.167Z,98.22
2022-11-08T20:54:17.557Z,102.35
2022-11-08T20:56:48.886Z,101.65
2022-11-08T20:59:23.578Z,107.95
2022-11-08T21:01:53.002Z,97.68
2022-11-08T21:04:20.868Z,101.10
2022-11-08T21:06:47.791Z,107.78
2022-11-08T21:09:37.431Z,110.72
2022-11-08T21:12:09.522Z,102.53
2022-11-08T21:14:38.935Z,108.20
2022-11-08T21:17:22.632Z,102.07
2022-11-08T21:19:51.251Z,100.28
2022-11-08T21:22:21.544Z,108.40
2022-11-08T21:24:51.196Z,109.32
2022-11-08T21:27:18.420Z,99.68
2022-11-08T21:29:48.130Z,104.63
2022-11-08T21:32:20.842Z,111.22
2022-11-08T21:34:50.935Z,107.18
2022-11-08T21:37:17.736Z,108.28
2022-11-08T21:39:59.007Z,101.35
2022-11-08T21:42:26.989Z,110.47
2022-11-08T21:44:53.871Z,104.82
2022-11-08T21:47:25.720Z,106.40
2022-11-08T21:52:28.536Z,107.85
2022-11-08T21:54:55.602Z,112.75
2022-11-08T21:57:23.641Z,109.18
2022-11-08T21:59:50.393Z,111.85
2022-11-08T22:02:17.216Z,102.43
2022-11-08T22:04:47.658Z,101.32
2022-11-08T22:07:14.517Z,109.13
2022-11-08T22:09:42.526Z,106.20
2022-11-08T22:12:11.630Z,107.55
2022-11-08T22:14:38.878Z,97.13
2022-11-08T22:17:06.522Z,107.82
2022-11-08T22:19:33.923Z,110.00
2022-11-08T22:22:04.995Z,109.47
2022-11-08T22:24:32.512Z,109.13
2022-11-08T22:27:04.130Z,104.32
2022-11-08T22:29:31.079Z,113.30
2022-11-08T22:31:58.775Z,108.72
2022-11-08T22:34:25.856Z,111.53
2022-11-08T22:36:52.660Z,110.68
2022-11-08T22:39:33.273Z,109.70
2022-11-08T22:42:00.310Z,104.80
2022-11-08T22:44:32.932Z,103.57
2022-11-08T22:46:59.523Z,107.15
2022-11-08T22:49:26.176Z,101.57
2022-11-08T22:51:53.412Z,111.15
2022-11-08T22:54:20.180Z,112.13
2022-11-08T22:56:48.333Z,110.28
2022-11-08T22:59:19.154Z,114.28
2022-11-08T23:01:49.000Z,115.35
2022-11-08T23:04:15.820Z,112.07
2022-11-08T23:06:44.427Z,109.57
2022-11-08T23:09:13.453Z,109.97
2022-11-08T23:11:59.376Z,111.90
2022-11-08T23:14:47.074Z,106.30
2022-11-08T23:17:13.865Z,113.60
2022-11-08T23:19:59.233Z,108.50
2022-11-08T23:22:47.526Z,104.43
2022-11-08T23:25:14.795Z,108.35
2022-11-08T23:27:59.918Z,110.97
2022-11-08T23:30:47.034Z,108.15
2022-11-08T23:33:13.974Z,109.15
2022-11-08T23:36:00.796Z,108.05
2022-11-08T23:38:27.525Z,113.70
2022-11-08T23:41:17.366Z,107.70
2022-11-08T23:44:03.886Z,106.28
2022-11-08T23:46:30.639Z,94.22
2022-11-08T23:48:57.391Z,107.07
2022-11-08T23:51:25.822Z,110.43
2022-11-08T23:53:52.709Z,117.13
2022-11-08T23:56:26.996Z,105.80
2022-11-08T23:58:58.198Z,100.60
